MBS International, MI

8:07 PM EST on December 22, 2014 (GMT -0500)
MBS International | Change Station
CLOSE
Current Station
Airport
Location: Saginaw,
Elevation: 669 ft
Nearby Weather Stations

Elev 669 ft 43.53 °N, 84.08 °W | Updated 14 minutes ago

Overcast
Overcast
35 °F
Feels Like 28 °F
N
9
Wind Variable Wind from ENE

Today
High -- | Low -- °F
--% Chance of Precip.
Yesterday
High -- | Low -- °F
Precip. -- in
8:06 AM 5:03 PM
New Moon, 1% visible
Pressure 29.96 in
Visibility 8.0 miles
Clouds Scattered Clouds 4500 ft
Mostly Cloudy 7000 ft
Overcast 8000 ft
Windchill 28 °F
Dew Point 29 °F
Humidity 78%
Rainfall 0.00 in
Snow Depth Not available.
UV 0 out of 12
Pollen .10 out of 12
Air Quality Not available.
Flu Activity Not available.
METAR KMBS 230053Z 07008KT 8SM SCT045 BKN070 OVC080 02/M02 A2993 RMK AO2 SLP143 T00171017

More Conditions Fewer Conditions

Pressure 29.96 in
Visibility 8.0 miles
Clouds Scattered Clouds 4500 ft
Mostly Cloudy 7000 ft
Overcast 8000 ft
Windchill 28 °F
Dew Point 29 °F
Humidity 78%
Rainfall 0.00 in
Snow Depth Not available.
UV 0 out of 12
Pollen .10 out of 12
Air Quality Not available.
Flu Activity Not available.
METAR KMBS 230053Z 07008KT 8SM SCT045 BKN070 OVC080 02/M02 A2993 RMK AO2 SLP143 T00171017

More Conditions Fewer Conditions

10-Day Weather Forecast

Almanac

Astronomy

Dec. 22, 2014 Rise Set
Actual Time
Civil Twilight
Nautical Twilight
Astronomical Twilight
Moon
Length of Visible Light
Length of Day
Tomorrow will be .
, % of the Moon is Illuminated

Today's Extremes

State Highs State Lows

Community

WunderPhotos

Upload Photos

1,779,742 photos uploaded!

WunderBlogs® & News

Nearby

Air Quality

  Air Quality AQ Index Pollutant
Not available.

Snow Depth

Station Depth Elevation

Earthquake Activity

City Distance Mag. Time & Date
Minimum magnitude displayed is 2.5.

Coastal Water Temperatures

Place Temperature

Nearby Weather Stations